createdAt,value
2018-02-21T00:01:55.203Z,-0.10
2018-02-21T00:04:22.813Z,-0.10
2018-02-21T00:06:50.359Z,-0.10
2018-02-21T00:09:17.944Z,-0.10
2018-02-21T00:11:45.490Z,-0.20
2018-02-21T00:14:13.033Z,-0.20
2018-02-21T00:16:41.384Z,-0.30
2018-02-21T00:19:09.019Z,-0.30
2018-02-21T00:21:36.555Z,-0.30
2018-02-21T00:24:04.995Z,-0.30
2018-02-21T00:26:32.555Z,-0.30
2018-02-21T00:29:00.095Z,-0.30
2018-02-21T00:31:28.478Z,-0.30
2018-02-21T00:33:56.018Z,-0.30
2018-02-21T00:36:23.572Z,-0.30
2018-02-21T00:38:51.249Z,-0.30
2018-02-21T00:41:18.802Z,-0.40
2018-02-21T00:43:46.344Z,-0.40
2018-02-21T00:46:14.699Z,-0.50
2018-02-21T00:48:42.336Z,-0.50
2018-02-21T00:51:09.919Z,-0.50
2018-02-21T00:53:37.516Z,-0.60
2018-02-21T00:56:05.055Z,-0.60
2018-02-21T00:58:32.608Z,-0.70
2018-02-21T01:01:00.210Z,-0.70
2018-02-21T01:03:27.756Z,-0.70
2018-02-21T01:05:55.309Z,-0.70
2018-02-21T01:08:23.665Z,-0.70
2018-02-21T01:10:51.200Z,-0.70
2018-02-21T01:13:19.579Z,-0.80
2018-02-21T01:15:47.172Z,-0.80
2018-02-21T01:18:14.729Z,-0.90
2018-02-21T01:20:42.263Z,-0.90
2018-02-21T01:23:11.135Z,-1.00
2018-02-21T01:25:38.773Z,-1.00
2018-02-21T01:28:06.319Z,-1.00
2018-02-21T01:30:34.746Z,-1.10
2018-02-21T01:33:02.286Z,-1.10
2018-02-21T01:35:30.595Z,-1.00
2018-02-21T01:37:58.180Z,-1.10
2018-02-21T01:40:25.728Z,-1.10
2018-02-21T01:42:53.274Z,-1.10
2018-02-21T01:45:21.825Z,-1.10
2018-02-21T01:47:49.472Z,-1.20
2018-02-21T01:50:17.017Z,-1.20
2018-02-21T01:52:45.433Z,-1.10
2018-02-21T01:55:12.975Z,-1.20
2018-02-21T01:57:41.275Z,-1.20
2018-02-21T02:00:08.903Z,-1.20
2018-02-21T02:02:36.439Z,-1.20
2018-02-21T02:05:04.040Z,-1.20
2018-02-21T02:07:31.628Z,-1.20
2018-02-21T02:09:59.248Z,-1.10
2018-02-21T02:12:26.791Z,-1.10
2018-02-21T02:14:55.232Z,-1.20
2018-02-21T02:17:22.956Z,-1.20
2018-02-21T02:19:50.515Z,-1.20
2018-02-21T02:22:18.252Z,-1.20
2018-02-21T02:24:45.800Z,-1.20
2018-02-21T02:27:13.351Z,-1.30
2018-02-21T02:29:41.718Z,-1.30
2018-02-21T02:32:09.358Z,-1.30
2018-02-21T02:34:36.916Z,-1.20
2018-02-21T02:37:04.610Z,-1.20
2018-02-21T02:39:44.089Z,-1.20
2018-02-21T02:42:11.682Z,-1.20
2018-02-21T02:44:39.993Z,-1.30
2018-02-21T02:47:07.540Z,-1.30
2018-02-21T02:49:35.903Z,-1.30
2018-02-21T02:52:03.465Z,-1.30
2018-02-21T02:54:31.120Z,-1.20
2018-02-21T02:56:58.866Z,-1.20
2018-02-21T02:59:26.423Z,-1.20
2018-02-21T03:01:53.983Z,-1.30
2018-02-21T03:04:22.406Z,-1.30
2018-02-21T03:06:50.006Z,-1.30
2018-02-21T03:09:17.545Z,-1.30
2018-02-21T03:11:45.134Z,-1.20
2018-02-21T03:14:12.692Z,-1.30
2018-02-21T03:16:40.242Z,-1.30
2018-02-21T03:19:08.594Z,-1.30
2018-02-21T03:21:36.138Z,-1.30
2018-02-21T03:24:03.799Z,-1.30
2018-02-21T03:26:31.383Z,-1.30
2018-02-21T03:28:58.932Z,-1.30
2018-02-21T03:31:26.509Z,-1.30
2018-02-21T03:33:54.120Z,-1.30
2018-02-21T03:36:21.667Z,-1.30
2018-02-21T03:38:49.206Z,-1.40
2018-02-21T03:41:17.650Z,-1.30
2018-02-21T03:43:45.289Z,-1.30
2018-02-21T03:46:12.920Z,-1.30
2018-02-21T03:48:41.663Z,-1.40
2018-02-21T03:51:09.291Z,-1.40
2018-02-21T03:53:37.685Z,-1.40
2018-02-21T03:56:06.121Z,-1.40
2018-02-21T03:58:33.756Z,-1.40
2018-02-21T04:01:01.391Z,-1.40
2018-02-21T04:03:29.064Z,-1.40
2018-02-21T04:05:56.807Z,-1.50
2018-02-21T04:08:24.486Z,-1.50
2018-02-21T04:10:52.171Z,-1.50
2018-02-21T04:13:19.856Z,-1.40
2018-02-21T04:15:47.484Z,-1.40
2018-02-21T04:18:15.161Z,-1.40
2018-02-21T04:20:42.793Z,-1.40
2018-02-21T04:23:10.429Z,-1.40
2018-02-21T04:25:38.297Z,-1.50
2018-02-21T04:28:05.979Z,-1.50
2018-02-21T04:30:33.615Z,-1.40
2018-02-21T04:33:01.305Z,-1.40
2018-02-21T04:35:28.944Z,-1.50
2018-02-21T04:37:57.344Z,-1.40
2018-02-21T04:40:25.911Z,-1.40
2018-02-21T04:42:53.651Z,-1.50
2018-02-21T04:45:21.287Z,-1.50
2018-02-21T04:47:49.734Z,-1.50
2018-02-21T04:50:17.388Z,-1.50
2018-02-21T04:52:45.040Z,-1.50
2018-02-21T04:58:36.414Z,-1.40
2018-02-21T05:01:04.098Z,-1.40
2018-02-21T05:03:31.766Z,-1.40
2018-02-21T05:05:59.419Z,-1.50
2018-02-21T05:08:27.876Z,-1.40
2018-02-21T05:10:55.529Z,-1.40
2018-02-21T05:13:23.165Z,-1.40
2018-02-21T05:15:50.947Z,-1.40
2018-02-21T05:18:18.651Z,-1.40
2018-02-21T05:20:46.283Z,-1.40
2018-02-21T05:23:13.947Z,-1.40
2018-02-21T05:25:42.399Z,-1.40
2018-02-21T05:28:10.068Z,-1.40
2018-02-21T05:30:37.752Z,-1.40
2018-02-21T05:33:05.400Z,-1.40
2018-02-21T05:35:33.035Z,-1.40
2018-02-21T05:38:01.495Z,-1.40
2018-02-21T05:40:29.122Z,-1.40
2018-02-21T05:42:56.757Z,-1.40
2018-02-21T05:45:24.439Z,-1.40
2018-02-21T05:47:52.974Z,-1.40
2018-02-21T05:50:20.614Z,-1.40
2018-02-21T05:52:49.060Z,-1.40
2018-02-21T05:55:16.687Z,-1.40
2018-02-21T05:57:44.316Z,-1.40
2018-02-21T06:00:11.996Z,-1.40
2018-02-21T06:02:39.734Z,-1.40
2018-02-21T06:05:07.369Z,-1.50
2018-02-21T06:07:35.809Z,-1.50
2018-02-21T06:10:03.441Z,-1.50
2018-02-21T06:12:31.143Z,-1.50
2018-02-21T06:14:58.905Z,-1.50
2018-02-21T06:17:26.578Z,-1.40
2018-02-21T06:19:54.206Z,-1.30
2018-02-21T06:22:21.876Z,-1.30
2018-02-21T06:24:49.504Z,-1.30
2018-02-21T06:27:17.136Z,-1.20
2018-02-21T06:29:44.825Z,-1.20
2018-02-21T06:32:13.254Z,-1.30
2018-02-21T06:34:40.926Z,-1.30
2018-02-21T06:37:08.612Z,-1.30
2018-02-21T06:39:36.255Z,-1.30
2018-02-21T06:42:03.890Z,-1.30
2018-02-21T06:44:31.579Z,-1.30
2018-02-21T06:46:59.975Z,-1.20
2018-02-21T06:49:28.400Z,-1.20
2018-02-21T06:51:56.113Z,-1.20
2018-02-21T06:54:24.087Z,-1.20
2018-02-21T06:56:51.724Z,-1.10
2018-02-21T06:59:19.404Z,-1.10
2018-02-21T07:01:47.075Z,-1.10
2018-02-21T07:04:14.697Z,-1.00
2018-02-21T07:06:42.384Z,-0.90
2018-02-21T07:09:10.815Z,-0.80
2018-02-21T07:11:38.499Z,-0.80
2018-02-21T07:14:06.367Z,-0.80
2018-02-21T07:16:34.008Z,-0.80
2018-02-21T07:19:02.542Z,-0.70
2018-02-21T07:21:30.310Z,-0.80
2018-02-21T07:23:58.068Z,-0.70
2018-02-21T07:26:25.767Z,-0.70
2018-02-21T07:28:53.457Z,-0.60
2018-02-21T07:31:21.111Z,-0.70
2018-02-21T07:33:49.008Z,-0.60
2018-02-21T07:36:16.864Z,-0.60
2018-02-21T07:38:44.540Z,-0.70
2018-02-21T07:41:12.169Z,-0.60
2018-02-21T07:43:40.707Z,-0.50
2018-02-21T07:46:08.331Z,-0.50
2018-02-21T07:48:36.720Z,-0.30
2018-02-21T07:51:04.434Z,-0.30
2018-02-21T07:53:32.060Z,-0.30
2018-02-21T07:56:00.513Z,0.00
2018-02-21T07:58:28.372Z,0.00
2018-02-21T08:00:56.068Z,0.10
2018-02-21T08:03:23.837Z,0.20
2018-02-21T08:05:51.509Z,0.30
2018-02-21T08:08:19.131Z,0.50
2018-02-21T08:10:46.771Z,0.70
2018-02-21T08:13:14.533Z,0.90
2018-02-21T08:15:42.439Z,1.30
2018-02-21T08:18:10.084Z,1.50
2018-02-21T08:20:37.743Z,1.50
2018-02-21T08:23:05.572Z,1.50
2018-02-21T08:25:33.964Z,1.40
2018-02-21T08:28:01.820Z,1.40
2018-02-21T08:30:29.449Z,1.50
2018-02-21T08:32:57.149Z,1.60
2018-02-21T08:35:24.912Z,1.80
2018-02-21T08:37:52.628Z,2.10
2018-02-21T08:40:20.391Z,2.30
2018-02-21T08:42:48.056Z,2.50
2018-02-21T08:45:15.695Z,2.70
2018-02-21T08:47:44.079Z,3.80
2018-02-21T08:50:12.523Z,4.30
2018-02-21T08:52:40.143Z,4.30
2018-02-21T08:55:08.535Z,5.00
2018-02-21T08:57:36.967Z,5.30
2018-02-21T09:00:04.593Z,5.30
2018-02-21T09:02:32.983Z,5.70
2018-02-21T09:05:01.423Z,5.80
2018-02-21T09:07:29.821Z,6.10
2018-02-21T09:09:57.495Z,6.10
2018-02-21T09:12:25.163Z,6.30
2018-02-21T09:14:52.787Z,6.30
2018-02-21T09:17:21.224Z,6.30
2018-02-21T09:19:48.891Z,6.40
2018-02-21T09:22:16.569Z,6.40
2018-02-21T09:24:44.377Z,6.40
2018-02-21T09:27:12.060Z,6.20
2018-02-21T09:29:39.689Z,6.10
2018-02-21T09:32:07.366Z,6.10
2018-02-21T09:34:35.039Z,6.40
2018-02-21T09:37:02.703Z,6.50
2018-02-21T09:39:30.382Z,6.70
2018-02-21T09:41:58.056Z,6.40
2018-02-21T09:44:25.686Z,6.20
2018-02-21T09:46:54.072Z,6.10
2018-02-21T09:49:21.743Z,6.10
2018-02-21T09:51:49.470Z,6.00
2018-02-21T09:54:17.096Z,6.00
2018-02-21T09:56:45.520Z,6.50
2018-02-21T09:59:13.227Z,6.50
2018-02-21T10:01:41.687Z,7.20
2018-02-21T10:04:09.356Z,7.20
2018-02-21T10:06:37.031Z,7.50
2018-02-21T10:09:04.659Z,7.90
2018-02-21T10:11:32.351Z,8.00
2018-02-21T10:14:00.734Z,8.30
2018-02-21T10:16:28.458Z,8.30
2018-02-21T10:18:56.137Z,8.40
2018-02-21T10:21:23.765Z,8.40
2018-02-21T10:23:52.152Z,8.10
2018-02-21T10:26:20.708Z,8.10
2018-02-21T10:28:49.184Z,7.60
2018-02-21T10:31:16.803Z,7.50
2018-02-21T10:33:45.352Z,7.30
2018-02-21T10:36:12.987Z,7.30
2018-02-21T10:38:41.371Z,7.00
2018-02-21T10:41:09.807Z,7.10
2018-02-21T10:43:37.427Z,7.00
2018-02-21T10:46:05.052Z,7.50
2018-02-21T10:48:32.732Z,7.60
2018-02-21T10:51:00.352Z,6.80
2018-02-21T10:53:28.747Z,6.40
2018-02-21T10:55:56.466Z,6.40
2018-02-21T10:58:24.136Z,6.30
2018-02-21T11:00:57.428Z,6.30
2018-02-21T11:03:25.047Z,6.10
2018-02-21T11:05:52.688Z,6.00
2018-02-21T11:08:20.451Z,6.10
2018-02-21T11:10:48.068Z,6.30
2018-02-21T11:13:15.710Z,6.60
2018-02-21T11:15:43.385Z,7.00
2018-02-21T11:18:11.011Z,7.20
2018-02-21T11:20:39.405Z,7.40
2018-02-21T11:23:07.840Z,7.50
2018-02-21T11:25:35.547Z,7.50
2018-02-21T11:28:03.939Z,7.10
2018-02-21T11:30:31.612Z,7.10
2018-02-21T11:33:00.120Z,6.40
2018-02-21T11:35:28.561Z,6.20
2018-02-21T11:37:56.271Z,6.20
2018-02-21T11:40:23.894Z,6.10
2018-02-21T11:42:51.584Z,6.20
2018-02-21T11:45:19.259Z,6.20
2018-02-21T11:47:47.014Z,6.20
2018-02-21T11:50:14.658Z,6.20
2018-02-21T11:52:43.117Z,6.20
2018-02-21T11:55:10.762Z,6.20
2018-02-21T11:57:38.382Z,6.10
2018-02-21T12:00:06.132Z,6.20
2018-02-21T12:02:33.757Z,6.10
2018-02-21T12:05:02.184Z,6.40
2018-02-21T12:07:30.089Z,6.30
2018-02-21T12:09:57.843Z,6.30
2018-02-21T12:12:25.512Z,5.90
2018-02-21T12:14:53.190Z,5.60
2018-02-21T12:17:20.858Z,5.50
2018-02-21T12:19:48.475Z,5.40
2018-02-21T12:22:16.140Z,5.50
2018-02-21T12:24:43.755Z,5.40
2018-02-21T12:27:11.387Z,5.00
2018-02-21T12:29:39.125Z,4.70
2018-02-21T12:32:06.760Z,4.50
2018-02-21T12:34:35.276Z,4.40
2018-02-21T12:37:02.983Z,4.40
2018-02-21T12:39:35.354Z,4.30
2018-02-21T12:42:03.285Z,4.30
2018-02-21T12:44:31.703Z,4.20
2018-02-21T12:46:59.339Z,4.20
2018-02-21T12:49:27.779Z,4.30
2018-02-21T12:51:55.563Z,4.30
2018-02-21T12:54:23.345Z,4.30
2018-02-21T12:56:51.219Z,4.30
2018-02-21T12:59:19.099Z,4.20
2018-02-21T13:01:47.576Z,4.00
2018-02-21T13:04:15.343Z,4.00
2018-02-21T13:06:43.004Z,4.00
2018-02-21T13:09:10.886Z,4.00
2018-02-21T13:11:38.781Z,4.00
2018-02-21T13:14:06.674Z,3.90
2018-02-21T13:16:34.337Z,3.90
2018-02-21T13:19:02.136Z,3.90
2018-02-21T13:21:29.903Z,3.80
2018-02-21T13:23:57.884Z,3.70
2018-02-21T13:26:25.863Z,3.60
2018-02-21T13:28:53.563Z,3.60
2018-02-21T13:31:21.271Z,3.60
2018-02-21T13:33:49.022Z,3.70
2018-02-21T13:36:16.766Z,3.70
2018-02-21T13:38:44.399Z,3.70
2018-02-21T13:41:13.380Z,3.50
2018-02-21T13:43:41.154Z,3.50
2018-02-21T13:46:08.798Z,3.50
2018-02-21T13:48:36.583Z,3.20
2018-02-21T13:51:04.803Z,3.60
2018-02-21T13:53:33.632Z,3.70
2018-02-21T13:56:01.440Z,3.60
2018-02-21T13:58:29.247Z,3.70
2018-02-21T14:00:57.190Z,3.80
2018-02-21T14:03:25.038Z,3.70
2018-02-21T14:05:53.110Z,3.90
2018-02-21T14:08:21.541Z,3.70
2018-02-21T14:10:49.317Z,3.70
2018-02-21T14:13:16.948Z,3.70
2018-02-21T14:15:46.042Z,3.80
2018-02-21T14:18:15.232Z,3.80
2018-02-21T14:20:42.917Z,3.80
2018-02-21T14:23:10.900Z,3.80
2018-02-21T14:25:38.593Z,3.80
2018-02-21T14:28:07.063Z,3.70
2018-02-21T14:30:34.824Z,3.70
2018-02-21T14:33:02.811Z,3.70
2018-02-21T14:35:30.460Z,3.70
2018-02-21T14:37:58.132Z,3.70
2018-02-21T14:40:27.036Z,3.70
2018-02-21T14:42:54.699Z,3.70
2018-02-21T14:45:22.382Z,3.50
2018-02-21T14:47:50.364Z,3.40
2018-02-21T14:50:18.075Z,3.40
2018-02-21T14:52:46.019Z,3.30
2018-02-21T14:55:13.920Z,3.30
2018-02-21T14:57:41.568Z,3.30
2018-02-21T15:00:09.232Z,3.30
2018-02-21T15:02:37.121Z,3.30
2018-02-21T15:05:04.802Z,3.30
2018-02-21T15:07:32.472Z,3.30
2018-02-21T15:10:00.152Z,3.30
2018-02-21T15:12:27.819Z,3.30
2018-02-21T15:14:55.716Z,3.30
2018-02-21T15:17:23.480Z,3.40
2018-02-21T15:19:51.121Z,3.40
2018-02-21T15:22:18.776Z,3.40
2018-02-21T15:24:47.413Z,3.50
2018-02-21T15:27:15.089Z,3.50
2018-02-21T15:29:42.764Z,3.50
2018-02-21T15:32:10.430Z,3.50
2018-02-21T15:34:38.812Z,3.50
2018-02-21T15:37:06.432Z,3.50
2018-02-21T15:39:34.096Z,3.50
2018-02-21T15:42:02.580Z,3.40
2018-02-21T15:44:30.230Z,3.40
2018-02-21T15:46:57.898Z,3.40
2018-02-21T15:49:25.556Z,3.30
2018-02-21T15:51:53.948Z,3.20
2018-02-21T15:54:22.471Z,3.20
2018-02-21T15:56:50.146Z,3.20
2018-02-21T15:59:17.818Z,3.20
2018-02-21T16:01:45.715Z,3.10
2018-02-21T16:04:13.332Z,3.10
2018-02-21T16:06:41.729Z,3.00
2018-02-21T16:09:10.171Z,3.10
2018-02-21T16:11:37.796Z,3.10
2018-02-21T16:14:06.218Z,3.00
2018-02-21T16:16:33.907Z,2.90
2018-02-21T16:19:01.524Z,2.90
2018-02-21T16:21:29.915Z,2.90
2018-02-21T16:23:58.432Z,3.00
2018-02-21T16:26:26.051Z,3.00
2018-02-21T16:28:53.683Z,2.90
2018-02-21T16:31:21.388Z,2.90
2018-02-21T16:33:49.003Z,2.80
2018-02-21T16:36:17.408Z,2.80
2018-02-21T16:38:45.096Z,2.80
2018-02-21T16:41:12.784Z,2.70
2018-02-21T16:43:40.410Z,2.70
2018-02-21T16:46:08.847Z,2.70
2018-02-21T16:48:36.531Z,2.70
2018-02-21T16:51:04.184Z,2.60
2018-02-21T16:53:31.872Z,2.60
2018-02-21T16:55:59.491Z,2.60
2018-02-21T16:58:27.922Z,2.60
2018-02-21T17:00:55.592Z,2.60
2018-02-21T17:03:23.292Z,2.50
2018-02-21T17:05:50.932Z,2.60
2018-02-21T17:08:18.595Z,2.60
2018-02-21T17:10:46.983Z,2.60
2018-02-21T17:13:15.457Z,2.60
2018-02-21T17:15:43.189Z,2.60
2018-02-21T17:18:10.808Z,2.50
2018-02-21T17:20:39.225Z,2.40
2018-02-21T17:23:06.955Z,2.40
2018-02-21T17:25:34.591Z,2.40
2018-02-21T17:28:02.275Z,2.30
2018-02-21T17:30:30.048Z,2.30
2018-02-21T17:32:57.707Z,2.20
2018-02-21T17:35:25.399Z,2.20
2018-02-21T17:37:53.125Z,2.20
2018-02-21T17:40:21.519Z,2.20
2018-02-21T17:42:50.161Z,2.20
2018-02-21T17:45:17.887Z,2.10
2018-02-21T17:47:45.644Z,2.10
2018-02-21T17:50:13.295Z,2.10
2018-02-21T17:52:40.986Z,2.00
2018-02-21T17:55:08.736Z,2.00
2018-02-21T17:57:36.356Z,1.90
2018-02-21T18:00:04.788Z,1.90
2018-02-21T18:02:32.407Z,1.80
2018-02-21T18:05:00.028Z,1.80
2018-02-21T18:07:27.738Z,1.80
2018-02-21T18:09:55.361Z,1.80
2018-02-21T18:12:23.750Z,1.70
2018-02-21T18:14:52.176Z,1.70
2018-02-21T18:17:19.848Z,1.60
2018-02-21T18:19:47.624Z,1.60
2018-02-21T18:22:15.357Z,1.60
2018-02-21T18:24:43.760Z,1.60
2018-02-21T18:27:12.282Z,1.50
2018-02-21T18:29:39.966Z,1.50
2018-02-21T18:32:07.588Z,1.70
2018-02-21T18:34:35.987Z,2.00
2018-02-21T18:37:04.427Z,2.10
2018-02-21T18:39:32.061Z,2.10
2018-02-21T18:41:59.695Z,2.10
2018-02-21T18:44:27.474Z,1.90
2018-02-21T18:46:55.111Z,1.80
2018-02-21T18:49:22.740Z,1.60
2018-02-21T18:51:51.273Z,1.50
2018-02-21T18:54:18.931Z,1.50
2018-02-21T18:56:46.569Z,1.40
2018-02-21T18:59:15.112Z,1.30
2018-02-21T19:01:42.892Z,1.30
2018-02-21T19:04:10.586Z,1.20
2018-02-21T19:06:38.339Z,1.20
2018-02-21T19:09:05.958Z,1.20
2018-02-21T19:11:33.606Z,1.10
2018-02-21T19:14:01.472Z,1.10
2018-02-21T19:16:29.091Z,1.00
2018-02-21T19:18:58.503Z,1.00
2018-02-21T19:21:26.955Z,1.00
2018-02-21T19:23:54.579Z,1.00
2018-02-21T19:26:22.980Z,1.00
2018-02-21T19:28:50.872Z,1.00
2018-02-21T19:31:18.592Z,1.00
2018-02-21T19:33:46.218Z,1.00
2018-02-21T19:36:13.912Z,0.90
2018-02-21T19:38:41.619Z,0.90
2018-02-21T19:41:09.243Z,0.90
2018-02-21T19:43:36.925Z,0.80
2018-02-21T19:46:04.570Z,0.80
2018-02-21T19:48:32.611Z,0.80
2018-02-21T19:51:00.283Z,0.80
2018-02-21T19:53:29.157Z,0.90
2018-02-21T19:55:56.783Z,0.90
2018-02-21T19:58:25.324Z,0.90
2018-02-21T20:00:54.557Z,1.00
2018-02-21T20:03:22.233Z,1.00
2018-02-21T20:05:49.911Z,1.00
2018-02-21T20:08:17.555Z,1.00
2018-02-21T20:10:45.184Z,1.00
2018-02-21T20:13:13.725Z,0.90
2018-02-21T20:15:41.392Z,0.80
2018-02-21T20:18:09.045Z,0.80
2018-02-21T20:20:36.737Z,0.70
2018-02-21T20:23:04.420Z,0.70
2018-02-21T20:25:32.196Z,0.70
2018-02-21T20:27:59.973Z,0.60
2018-02-21T20:30:27.641Z,0.60
2018-02-21T20:32:55.271Z,0.60
2018-02-21T20:35:23.717Z,0.50
2018-02-21T20:37:51.339Z,0.50
2018-02-21T20:40:19.743Z,0.50
2018-02-21T20:42:47.433Z,0.40
2018-02-21T20:45:15.120Z,0.50
2018-02-21T20:47:42.768Z,0.40
2018-02-21T20:50:10.568Z,0.40
2018-02-21T20:52:38.196Z,0.40
2018-02-21T20:55:06.584Z,0.30
2018-02-21T20:57:34.352Z,0.30
2018-02-21T21:00:01.989Z,0.30
2018-02-21T21:02:29.620Z,0.30
2018-02-21T21:04:57.326Z,0.20
2018-02-21T21:07:24.953Z,0.20
2018-02-21T21:09:52.592Z,0.20
2018-02-21T21:12:20.248Z,0.20
2018-02-21T21:14:47.881Z,0.20
2018-02-21T21:17:16.275Z,0.10
2018-02-21T21:19:44.907Z,0.10
2018-02-21T21:22:12.536Z,0.10
2018-02-21T21:24:41.381Z,0.00
2018-02-21T21:27:09.059Z,0.00
2018-02-21T21:29:36.691Z,0.00
2018-02-21T21:32:04.313Z,0.00
2018-02-21T21:34:31.983Z,0.00
2018-02-21T21:36:59.609Z,0.00
2018-02-21T21:39:28.004Z,0.00
2018-02-21T21:41:56.531Z,0.00
2018-02-21T21:44:24.175Z,0.00
2018-02-21T21:46:51.808Z,0.00
2018-02-21T21:49:19.476Z,0.00
2018-02-21T21:51:47.103Z,0.00
2018-02-21T21:54:15.508Z,-0.10
2018-02-21T21:56:43.204Z,-0.10
2018-02-21T21:59:10.823Z,0.00
2018-02-21T22:01:39.216Z,0.00
2018-02-21T22:04:07.652Z,0.00
2018-02-21T22:06:35.277Z,-0.10
2018-02-21T22:09:02.903Z,-0.10
2018-02-21T22:11:30.568Z,-0.10
2018-02-21T22:13:58.196Z,-0.10
2018-02-21T22:16:27.569Z,0.00
2018-02-21T22:18:55.248Z,0.00
2018-02-21T22:21:22.889Z,0.00
2018-02-21T22:23:50.519Z,-0.10
2018-02-21T22:26:18.202Z,-0.10
2018-02-21T22:28:46.615Z,-0.10
2018-02-21T22:31:14.252Z,-0.10
2018-02-21T22:33:42.284Z,-0.10
2018-02-21T22:36:09.912Z,-0.20
2018-02-21T22:38:37.637Z,-0.20
2018-02-21T22:41:05.299Z,-0.20
2018-02-21T22:43:32.932Z,-0.20
2018-02-21T22:46:01.393Z,-0.20
2018-02-21T22:48:29.843Z,-0.20
2018-02-21T22:50:57.476Z,-0.20
2018-02-21T22:53:25.096Z,-0.20
2018-02-21T22:55:52.872Z,-0.20
2018-02-21T22:58:20.561Z,-0.20
2018-02-21T23:00:48.234Z,-0.20
2018-02-21T23:03:15.907Z,-0.20
2018-02-21T23:05:43.532Z,-0.30
2018-02-21T23:08:11.160Z,-0.30
2018-02-21T23:10:38.828Z,-0.30
2018-02-21T23:13:06.452Z,-0.20
2018-02-21T23:15:34.850Z,-0.30
2018-02-21T23:18:03.288Z,-0.30
2018-02-21T23:20:30.915Z,-0.30
2018-02-21T23:22:59.316Z,-0.20
2018-02-21T23:25:27.768Z,-0.30
2018-02-21T23:27:55.394Z,-0.30
2018-02-21T23:30:23.084Z,-0.20
2018-02-21T23:32:50.749Z,-0.20
2018-02-21T23:35:18.388Z,-0.20
2018-02-21T23:37:46.784Z,-0.20
2018-02-21T23:40:15.270Z,-0.10
2018-02-21T23:42:43.791Z,-0.10
2018-02-21T23:45:11.616Z,-0.10
2018-02-21T23:47:39.362Z,-0.10
2018-02-21T23:50:07.573Z,-0.10
2018-02-21T23:52:35.202Z,-0.10
2018-02-21T23:55:02.972Z,0.00
2018-02-21T23:57:30.606Z,0.00
2018-02-21T23:59:58.240Z,0.00
